sensor_id;sensor_type;location;lat;lon;timestamp;P1;durP1;ratioP1;P2;durP2;ratioP2
20988;SDS011;10653;47.052;15.410;2023-03-13T00:00:54;10.55;;;8.70;;
20988;SDS011;10653;47.052;15.410;2023-03-13T00:03:20;12.40;;;9.15;;
20988;SDS011;10653;47.052;15.410;2023-03-13T00:05:47;9.85;;;8.85;;
20988;SDS011;10653;47.052;15.410;2023-03-13T00:08:13;8.68;;;7.80;;
20988;SDS011;10653;47.052;15.410;2023-03-13T00:10:39;9.95;;;8.93;;
20988;SDS011;10653;47.052;15.410;2023-03-13T00:13:06;9.90;;;8.90;;
20988;SDS011;10653;47.052;15.410;2023-03-13T00:15:33;10.00;;;9.00;;
20988;SDS011;10653;47.052;15.410;2023-03-13T00:17:59;11.65;;;10.30;;
20988;SDS011;10653;47.052;15.410;2023-03-13T00:20:25;10.80;;;9.27;;
20988;SDS011;10653;47.052;15.410;2023-03-13T00:22:51;12.95;;;10.10;;
20988;SDS011;10653;47.052;15.410;2023-03-13T00:25:17;11.95;;;9.50;;
20988;SDS011;10653;47.052;15.410;2023-03-13T00:27:43;11.50;;;10.30;;
20988;SDS011;10653;47.052;15.410;2023-03-13T00:30:10;16.33;;;9.93;;
20988;SDS011;10653;47.052;15.410;2023-03-13T00:32:43;12.15;;;10.85;;
20988;SDS011;10653;47.052;15.410;2023-03-13T00:35:13;12.15;;;10.20;;
20988;SDS011;10653;47.052;15.410;2023-03-13T00:37:39;11.85;;;10.65;;
20988;SDS011;10653;47.052;15.410;2023-03-13T00:40:05;14.35;;;10.60;;
20988;SDS011;10653;47.052;15.410;2023-03-13T00:42:32;12.23;;;11.02;;
20988;SDS011;10653;47.052;15.410;2023-03-13T00:44:58;15.73;;;12.15;;
20988;SDS011;10653;47.052;15.410;2023-03-13T00:47:24;12.48;;;10.18;;
20988;SDS011;10653;47.052;15.410;2023-03-13T00:49:51;13.27;;;10.43;;
20988;SDS011;10653;47.052;15.410;2023-03-13T00:52:17;11.30;;;10.15;;
20988;SDS011;10653;47.052;15.410;2023-03-13T00:54:43;9.70;;;8.48;;
20988;SDS011;10653;47.052;15.410;2023-03-13T00:57:09;10.35;;;9.30;;
20988;SDS011;10653;47.052;15.410;2023-03-13T00:59:35;9.75;;;8.77;;
20988;SDS011;10653;47.052;15.410;2023-03-13T01:02:01;11.95;;;9.52;;
20988;SDS011;10653;47.052;15.410;2023-03-13T01:04:27;8.93;;;8.02;;
20988;SDS011;10653;47.052;15.410;2023-03-13T01:06:53;10.43;;;8.35;;
20988;SDS011;10653;47.052;15.410;2023-03-13T01:09:19;9.95;;;8.13;;
20988;SDS011;10653;47.052;15.410;2023-03-13T01:11:45;11.50;;;9.10;;
20988;SDS011;10653;47.052;15.410;2023-03-13T01:14:12;10.95;;;8.30;;
20988;SDS011;10653;47.052;15.410;2023-03-13T01:16:39;12.90;;;10.65;;
20988;SDS011;10653;47.052;15.410;2023-03-13T01:19:06;10.40;;;9.30;;
20988;SDS011;10653;47.052;15.410;2023-03-13T01:21:33;12.82;;;10.77;;
20988;SDS011;10653;47.052;15.410;2023-03-13T01:23:59;11.32;;;9.40;;
20988;SDS011;10653;47.052;15.410;2023-03-13T01:26:25;11.40;;;9.45;;
20988;SDS011;10653;47.052;15.410;2023-03-13T01:28:51;12.90;;;10.38;;
20988;SDS011;10653;47.052;15.410;2023-03-13T01:31:21;11.10;;;10.00;;
20988;SDS011;10653;47.052;15.410;2023-03-13T01:33:48;12.43;;;10.20;;
20988;SDS011;10653;47.052;15.410;2023-03-13T01:36:15;11.52;;;10.32;;
20988;SDS011;10653;47.052;15.410;2023-03-13T01:38:41;11.95;;;10.20;;
20988;SDS011;10653;47.052;15.410;2023-03-13T01:41:09;12.20;;;10.05;;
20988;SDS011;10653;47.052;15.410;2023-03-13T01:43:35;10.27;;;9.20;;
20988;SDS011;10653;47.052;15.410;2023-03-13T01:48:35;11.25;;;10.05;;
20988;SDS011;10653;47.052;15.410;2023-03-13T01:51:03;12.85;;;10.40;;
20988;SDS011;10653;47.052;15.410;2023-03-13T01:53:31;12.60;;;10.10;;
20988;SDS011;10653;47.052;15.410;2023-03-13T01:55:58;10.50;;;9.48;;
20988;SDS011;10653;47.052;15.410;2023-03-13T01:58:26;12.13;;;10.73;;
20988;SDS011;10653;47.052;15.410;2023-03-13T02:00:53;10.60;;;9.60;;
20988;SDS011;10653;47.052;15.410;2023-03-13T02:03:19;10.65;;;9.55;;
20988;SDS011;10653;47.052;15.410;2023-03-13T02:05:45;11.05;;;9.32;;
20988;SDS011;10653;47.052;15.410;2023-03-13T02:08:14;10.70;;;9.60;;
20988;SDS011;10653;47.052;15.410;2023-03-13T02:10:45;11.95;;;10.30;;
20988;SDS011;10653;47.052;15.410;2023-03-13T02:13:13;11.02;;;9.93;;
20988;SDS011;10653;47.052;15.410;2023-03-13T02:15:41;11.18;;;9.85;;
20988;SDS011;10653;47.052;15.410;2023-03-13T02:18:07;12.77;;;9.95;;
20988;SDS011;10653;47.052;15.410;2023-03-13T02:20:33;11.20;;;9.70;;
20988;SDS011;10653;47.052;15.410;2023-03-13T02:27:54;12.55;;;10.55;;
20988;SDS011;10653;47.052;15.410;2023-03-13T02:30:22;10.88;;;9.45;;
20988;SDS011;10653;47.052;15.410;2023-03-13T02:32:49;14.73;;;10.35;;
20988;SDS011;10653;47.052;15.410;2023-03-13T02:35:17;13.60;;;10.82;;
20988;SDS011;10653;47.052;15.410;2023-03-13T02:37:43;12.52;;;10.02;;
20988;SDS011;10653;47.052;15.410;2023-03-13T02:40:12;11.85;;;10.65;;
20988;SDS011;10653;47.052;15.410;2023-03-13T02:42:40;11.57;;;10.38;;
20988;SDS011;10653;47.052;15.410;2023-03-13T02:45:06;11.45;;;10.25;;
20988;SDS011;10653;47.052;15.410;2023-03-13T02:47:32;10.73;;;9.20;;
20988;SDS011;10653;47.052;15.410;2023-03-13T02:49:58;11.38;;;9.68;;
20988;SDS011;10653;47.052;15.410;2023-03-13T02:54:52;11.33;;;9.50;;
20988;SDS011;10653;47.052;15.410;2023-03-13T02:57:20;11.05;;;8.95;;
20988;SDS011;10653;47.052;15.410;2023-03-13T02:59:46;10.30;;;8.60;;
20988;SDS011;10653;47.052;15.410;2023-03-13T03:02:12;9.52;;;8.63;;
20988;SDS011;10653;47.052;15.410;2023-03-13T03:04:38;9.85;;;8.45;;
20988;SDS011;10653;47.052;15.410;2023-03-13T03:07:05;8.70;;;7.80;;
20988;SDS011;10653;47.052;15.410;2023-03-13T03:09:31;10.07;;;7.80;;
20988;SDS011;10653;47.052;15.410;2023-03-13T03:11:57;8.35;;;7.25;;
20988;SDS011;10653;47.052;15.410;2023-03-13T03:14:23;8.82;;;8.02;;
20988;SDS011;10653;47.052;15.410;2023-03-13T03:16:49;7.25;;;6.35;;
20988;SDS011;10653;47.052;15.410;2023-03-13T03:19:15;7.60;;;6.90;;
20988;SDS011;10653;47.052;15.410;2023-03-13T03:21:41;7.10;;;6.50;;
20988;SDS011;10653;47.052;15.410;2023-03-13T03:24:07;7.00;;;6.30;;
20988;SDS011;10653;47.052;15.410;2023-03-13T03:26:33;7.03;;;6.25;;
20988;SDS011;10653;47.052;15.410;2023-03-13T03:28:59;8.75;;;7.30;;
20988;SDS011;10653;47.052;15.410;2023-03-13T03:31:25;6.85;;;6.25;;
20988;SDS011;10653;47.052;15.410;2023-03-13T03:33:52;6.15;;;5.57;;
20988;SDS011;10653;47.052;15.410;2023-03-13T03:36:19;6.85;;;6.15;;
20988;SDS011;10653;47.052;15.410;2023-03-13T03:38:46;9.50;;;7.18;;
20988;SDS011;10653;47.052;15.410;2023-03-13T03:41:12;9.93;;;7.38;;
20988;SDS011;10653;47.052;15.410;2023-03-13T03:43:39;9.07;;;7.75;;
20988;SDS011;10653;47.052;15.410;2023-03-13T03:46:05;10.77;;;8.00;;
20988;SDS011;10653;47.052;15.410;2023-03-13T03:48:31;9.38;;;7.57;;
20988;SDS011;10653;47.052;15.410;2023-03-13T03:50:58;8.30;;;7.40;;
20988;SDS011;10653;47.052;15.410;2023-03-13T03:53:24;8.45;;;7.63;;
20988;SDS011;10653;47.052;15.410;2023-03-13T03:55:50;9.38;;;7.70;;
20988;SDS011;10653;47.052;15.410;2023-03-13T03:58:16;10.05;;;9.05;;
20988;SDS011;10653;47.052;15.410;2023-03-13T04:00:43;7.43;;;6.70;;
20988;SDS011;10653;47.052;15.410;2023-03-13T04:03:09;21.83;;;14.25;;
20988;SDS011;10653;47.052;15.410;2023-03-13T04:05:35;24.13;;;16.40;;
20988;SDS011;10653;47.052;15.410;2023-03-13T04:08:01;22.50;;;15.40;;
20988;SDS011;10653;47.052;15.410;2023-03-13T04:10:27;30.20;;;19.85;;
20988;SDS011;10653;47.052;15.410;2023-03-13T04:12:53;17.67;;;14.43;;
20988;SDS011;10653;47.052;15.410;2023-03-13T04:15:19;13.82;;;10.95;;
20988;SDS011;10653;47.052;15.410;2023-03-13T04:17:45;18.00;;;13.38;;
20988;SDS011;10653;47.052;15.410;2023-03-13T04:20:11;11.82;;;9.25;;
20988;SDS011;10653;47.052;15.410;2023-03-13T04:22:38;12.27;;;8.48;;
20988;SDS011;10653;47.052;15.410;2023-03-13T04:25:05;9.30;;;7.90;;
20988;SDS011;10653;47.052;15.410;2023-03-13T04:27:32;7.25;;;6.55;;
20988;SDS011;10653;47.052;15.410;2023-03-13T04:29:58;7.70;;;6.95;;
20988;SDS011;10653;47.052;15.410;2023-03-13T04:32:25;8.73;;;6.88;;
20988;SDS011;10653;47.052;15.410;2023-03-13T04:34:51;6.95;;;6.07;;
20988;SDS011;10653;47.052;15.410;2023-03-13T04:37:17;7.78;;;6.97;;
20988;SDS011;10653;47.052;15.410;2023-03-13T04:39:43;10.27;;;7.40;;
20988;SDS011;10653;47.052;15.410;2023-03-13T04:42:10;9.25;;;7.97;;
20988;SDS011;10653;47.052;15.410;2023-03-13T04:44:36;10.80;;;8.50;;
20988;SDS011;10653;47.052;15.410;2023-03-13T04:47:02;11.50;;;8.38;;
20988;SDS011;10653;47.052;15.410;2023-03-13T04:49:29;7.82;;;7.00;;
20988;SDS011;10653;47.052;15.410;2023-03-13T04:51:55;7.90;;;7.10;;
20988;SDS011;10653;47.052;15.410;2023-03-13T04:54:21;9.95;;;8.00;;
20988;SDS011;10653;47.052;15.410;2023-03-13T04:56:47;8.70;;;7.75;;
20988;SDS011;10653;47.052;15.410;2023-03-13T04:59:13;10.18;;;9.05;;
20988;SDS011;10653;47.052;15.410;2023-03-13T05:01:40;12.88;;;10.85;;
20988;SDS011;10653;47.052;15.410;2023-03-13T05:04:06;12.60;;;11.18;;
20988;SDS011;10653;47.052;15.410;2023-03-13T05:06:32;17.50;;;12.20;;
20988;SDS011;10653;47.052;15.410;2023-03-13T05:08:58;11.77;;;10.57;;
20988;SDS011;10653;47.052;15.410;2023-03-13T05:11:24;15.15;;;10.63;;
20988;SDS011;10653;47.052;15.410;2023-03-13T05:13:50;11.88;;;10.68;;
20988;SDS011;10653;47.052;15.410;2023-03-13T05:16:16;12.85;;;10.40;;
20988;SDS011;10653;47.052;15.410;2023-03-13T05:18:42;12.48;;;10.48;;
20988;SDS011;10653;47.052;15.410;2023-03-13T05:21:09;11.35;;;10.20;;
20988;SDS011;10653;47.052;15.410;2023-03-13T05:23:35;13.05;;;11.25;;
20988;SDS011;10653;47.052;15.410;2023-03-13T05:26:01;10.82;;;9.70;;
20988;SDS011;10653;47.052;15.410;2023-03-13T05:28:27;11.40;;;10.20;;
20988;SDS011;10653;47.052;15.410;2023-03-13T05:30:53;13.30;;;11.10;;
20988;SDS011;10653;47.052;15.410;2023-03-13T05:33:19;10.85;;;9.75;;
20988;SDS011;10653;47.052;15.410;2023-03-13T05:35:45;15.65;;;10.60;;
20988;SDS011;10653;47.052;15.410;2023-03-13T05:38:11;13.65;;;10.10;;
20988;SDS011;10653;47.052;15.410;2023-03-13T05:40:38;15.88;;;11.45;;
20988;SDS011;10653;47.052;15.410;2023-03-13T05:43:04;12.20;;;10.25;;
20988;SDS011;10653;47.052;15.410;2023-03-13T05:45:30;14.02;;;11.45;;
20988;SDS011;10653;47.052;15.410;2023-03-13T05:47:56;13.80;;;10.70;;
20988;SDS011;10653;47.052;15.410;2023-03-13T05:50:25;12.68;;;11.23;;
20988;SDS011;10653;47.052;15.410;2023-03-13T05:52:51;17.63;;;11.57;;
20988;SDS011;10653;47.052;15.410;2023-03-13T05:55:17;12.88;;;11.07;;
20988;SDS011;10653;47.052;15.410;2023-03-13T05:57:47;11.57;;;10.30;;
20988;SDS011;10653;47.052;15.410;2023-03-13T06:00:13;13.50;;;11.00;;
20988;SDS011;10653;47.052;15.410;2023-03-13T06:02:40;15.50;;;11.27;;
20988;SDS011;10653;47.052;15.410;2023-03-13T06:05:06;12.85;;;11.20;;
20988;SDS011;10653;47.052;15.410;2023-03-13T06:07:33;11.25;;;9.50;;
20988;SDS011;10653;47.052;15.410;2023-03-13T06:09:59;11.85;;;10.52;;
20988;SDS011;10653;47.052;15.410;2023-03-13T06:12:25;12.60;;;10.98;;
20988;SDS011;10653;47.052;15.410;2023-03-13T06:14:51;14.57;;;11.15;;
20988;SDS011;10653;47.052;15.410;2023-03-13T06:17:17;15.82;;;10.55;;
20988;SDS011;10653;47.052;15.410;2023-03-13T06:19:44;15.75;;;11.93;;
20988;SDS011;10653;47.052;15.410;2023-03-13T06:22:10;12.60;;;11.30;;
20988;SDS011;10653;47.052;15.410;2023-03-13T06:24:36;13.90;;;11.90;;
20988;SDS011;10653;47.052;15.410;2023-03-13T06:27:04;15.93;;;10.82;;
20988;SDS011;10653;47.052;15.410;2023-03-13T06:29:30;20.60;;;11.52;;
20988;SDS011;10653;47.052;15.410;2023-03-13T06:31:56;16.08;;;11.63;;
20988;SDS011;10653;47.052;15.410;2023-03-13T06:34:22;16.80;;;12.10;;
20988;SDS011;10653;47.052;15.410;2023-03-13T06:36:48;13.35;;;10.45;;
20988;SDS011;10653;47.052;15.410;2023-03-13T06:39:14;16.95;;;11.60;;
20988;SDS011;10653;47.052;15.410;2023-03-13T06:41:40;13.63;;;11.38;;
20988;SDS011;10653;47.052;15.410;2023-03-13T06:44:06;14.00;;;11.10;;
20988;SDS011;10653;47.052;15.410;2023-03-13T06:46:32;15.93;;;11.68;;
20988;SDS011;10653;47.052;15.410;2023-03-13T06:48:58;18.42;;;11.82;;
20988;SDS011;10653;47.052;15.410;2023-03-13T06:51:24;13.80;;;11.52;;
20988;SDS011;10653;47.052;15.410;2023-03-13T06:53:51;15.05;;;11.38;;
20988;SDS011;10653;47.052;15.410;2023-03-13T06:56:17;15.55;;;12.40;;
20988;SDS011;10653;47.052;15.410;2023-03-13T06:58:46;12.95;;;11.35;;
20988;SDS011;10653;47.052;15.410;2023-03-13T07:01:12;14.75;;;11.68;;
20988;SDS011;10653;47.052;15.410;2023-03-13T07:03:38;15.15;;;12.55;;
20988;SDS011;10653;47.052;15.410;2023-03-13T07:06:05;12.48;;;11.05;;
20988;SDS011;10653;47.052;15.410;2023-03-13T07:08:32;14.18;;;12.30;;
20988;SDS011;10653;47.052;15.410;2023-03-13T07:10:59;17.67;;;12.50;;
20988;SDS011;10653;47.052;15.410;2023-03-13T07:13:25;17.20;;;11.85;;
20988;SDS011;10653;47.052;15.410;2023-03-13T07:15:51;17.15;;;11.15;;
20988;SDS011;10653;47.052;15.410;2023-03-13T07:18:18;15.57;;;11.10;;
20988;SDS011;10653;47.052;15.410;2023-03-13T07:20:44;15.38;;;10.75;;
20988;SDS011;10653;47.052;15.410;2023-03-13T07:23:10;14.73;;;11.23;;
20988;SDS011;10653;47.052;15.410;2023-03-13T07:25:36;14.05;;;10.90;;
20988;SDS011;10653;47.052;15.410;2023-03-13T07:28:02;13.90;;;11.27;;
20988;SDS011;10653;47.052;15.410;2023-03-13T07:30:28;13.40;;;11.73;;
20988;SDS011;10653;47.052;15.410;2023-03-13T07:32:54;15.98;;;10.70;;
20988;SDS011;10653;47.052;15.410;2023-03-13T07:35:20;14.32;;;10.15;;
20988;SDS011;10653;47.052;15.410;2023-03-13T07:37:46;15.55;;;10.52;;
20988;SDS011;10653;47.052;15.410;2023-03-13T07:40:12;17.80;;;11.30;;
20988;SDS011;10653;47.052;15.410;2023-03-13T07:42:38;14.20;;;10.70;;
20988;SDS011;10653;47.052;15.410;2023-03-13T07:45:05;12.68;;;10.57;;
20988;SDS011;10653;47.052;15.410;2023-03-13T07:47:32;15.82;;;12.40;;
20988;SDS011;10653;47.052;15.410;2023-03-13T07:49:59;15.70;;;12.18;;
20988;SDS011;10653;47.052;15.410;2023-03-13T07:52:25;12.73;;;11.13;;
20988;SDS011;10653;47.052;15.410;2023-03-13T07:54:52;14.43;;;10.70;;
20988;SDS011;10653;47.052;15.410;2023-03-13T07:57:18;17.80;;;10.43;;
20988;SDS011;10653;47.052;15.410;2023-03-13T07:59:44;14.07;;;9.90;;
20988;SDS011;10653;47.052;15.410;2023-03-13T08:02:11;11.55;;;10.40;;
20988;SDS011;10653;47.052;15.410;2023-03-13T08:04:40;12.52;;;10.10;;
20988;SDS011;10653;47.052;15.410;2023-03-13T08:07:10;14.05;;;10.75;;
20988;SDS011;10653;47.052;15.410;2023-03-13T08:09:36;16.33;;;11.13;;
20988;SDS011;10653;47.052;15.410;2023-03-13T08:12:03;10.23;;;9.13;;
20988;SDS011;10653;47.052;15.410;2023-03-13T08:14:29;12.80;;;10.43;;
20988;SDS011;10653;47.052;15.410;2023-03-13T08:16:55;14.43;;;10.43;;
20988;SDS011;10653;47.052;15.410;2023-03-13T08:19:21;13.05;;;11.38;;
20988;SDS011;10653;47.052;15.410;2023-03-13T08:21:47;13.52;;;10.00;;
20988;SDS011;10653;47.052;15.410;2023-03-13T08:24:13;15.95;;;10.50;;
20988;SDS011;10653;47.052;15.410;2023-03-13T08:26:39;14.95;;;12.02;;
20988;SDS011;10653;47.052;15.410;2023-03-13T08:29:07;16.65;;;12.68;;
20988;SDS011;10653;47.052;15.410;2023-03-13T08:31:34;14.52;;;11.93;;
20988;SDS011;10653;47.052;15.410;2023-03-13T08:34:00;14.57;;;10.73;;
20988;SDS011;10653;47.052;15.410;2023-03-13T08:36:28;19.20;;;12.48;;
20988;SDS011;10653;47.052;15.410;2023-03-13T08:38:54;14.90;;;10.38;;
20988;SDS011;10653;47.052;15.410;2023-03-13T08:41:23;14.50;;;12.03;;
20988;SDS011;10653;47.052;15.410;2023-03-13T08:43:53;13.37;;;10.23;;
20988;SDS011;10653;47.052;15.410;2023-03-13T08:46:19;11.93;;;9.87;;
20988;SDS011;10653;47.052;15.410;2023-03-13T08:48:52;13.60;;;10.13;;
20988;SDS011;10653;47.052;15.410;2023-03-13T08:51:19;15.13;;;10.40;;
20988;SDS011;10653;47.052;15.410;2023-03-13T08:53:45;13.13;;;10.23;;
20988;SDS011;10653;47.052;15.410;2023-03-13T08:56:13;17.90;;;11.20;;
20988;SDS011;10653;47.052;15.410;2023-03-13T08:58:39;14.40;;;9.90;;
20988;SDS011;10653;47.052;15.410;2023-03-13T09:01:12;15.13;;;10.80;;
20988;SDS011;10653;47.052;15.410;2023-03-13T09:03:39;16.23;;;10.80;;
20988;SDS011;10653;47.052;15.410;2023-03-13T09:06:05;15.87;;;10.63;;
20988;SDS011;10653;47.052;15.410;2023-03-13T09:08:32;15.00;;;10.30;;
20988;SDS011;10653;47.052;15.410;2023-03-13T09:10:59;14.13;;;9.80;;
20988;SDS011;10653;47.052;15.410;2023-03-13T09:13:26;20.13;;;10.60;;
20988;SDS011;10653;47.052;15.410;2023-03-13T09:15:53;11.53;;;10.00;;
20988;SDS011;10653;47.052;15.410;2023-03-13T09:18:19;15.30;;;10.23;;
20988;SDS011;10653;47.052;15.410;2023-03-13T09:20:45;12.00;;;9.23;;
20988;SDS011;10653;47.052;15.410;2023-03-13T09:23:11;18.77;;;10.07;;
20988;SDS011;10653;47.052;15.410;2023-03-13T09:25:37;15.50;;;9.73;;
20988;SDS011;10653;47.052;15.410;2023-03-13T09:28:03;16.30;;;10.73;;
20988;SDS011;10653;47.052;15.410;2023-03-13T09:30:30;12.73;;;9.10;;
20988;SDS011;10653;47.052;15.410;2023-03-13T09:32:56;14.67;;;9.33;;
20988;SDS011;10653;47.052;15.410;2023-03-13T09:35:22;15.43;;;11.20;;
20988;SDS011;10653;47.052;15.410;2023-03-13T09:37:48;17.10;;;10.50;;
20988;SDS011;10653;47.052;15.410;2023-03-13T09:40:14;14.53;;;9.20;;
20988;SDS011;10653;47.052;15.410;2023-03-13T09:42:44;12.60;;;9.73;;
20988;SDS011;10653;47.052;15.410;2023-03-13T09:45:21;21.30;;;9.10;;
20988;SDS011;10653;47.052;15.410;2023-03-13T09:47:51;14.07;;;10.10;;
20988;SDS011;10653;47.052;15.410;2023-03-13T09:50:30;15.73;;;9.93;;
20988;SDS011;10653;47.052;15.410;2023-03-13T09:52:58;13.50;;;9.90;;
20988;SDS011;10653;47.052;15.410;2023-03-13T09:55:30;19.30;;;9.50;;
20988;SDS011;10653;47.052;15.410;2023-03-13T10:00:30;17.80;;;9.70;;
20988;SDS011;10653;47.052;15.410;2023-03-13T10:05:37;8.40;;;6.67;;
20988;SDS011;10653;47.052;15.410;2023-03-13T10:11:04;10.07;;;6.80;;
20988;SDS011;10653;47.052;15.410;2023-03-13T10:15:59;10.10;;;7.00;;
20988;SDS011;10653;47.052;15.410;2023-03-13T10:18:26;7.07;;;5.47;;
20988;SDS011;10653;47.052;15.410;2023-03-13T10:20:54;8.30;;;6.03;;
20988;SDS011;10653;47.052;15.410;2023-03-13T10:23:34;12.57;;;5.73;;
20988;SDS011;10653;47.052;15.410;2023-03-13T10:26:03;6.10;;;4.73;;
20988;SDS011;10653;47.052;15.410;2023-03-13T10:28:29;5.63;;;5.00;;
20988;SDS011;10653;47.052;15.410;2023-03-13T10:31:01;8.30;;;5.00;;
20988;SDS011;10653;47.052;15.410;2023-03-13T10:33:29;9.30;;;5.30;;
20988;SDS011;10653;47.052;15.410;2023-03-13T10:36:01;7.50;;;5.33;;
20988;SDS011;10653;47.052;15.410;2023-03-13T10:38:27;8.57;;;5.47;;
20988;SDS011;10653;47.052;15.410;2023-03-13T10:40:57;8.70;;;6.10;;
20988;SDS011;10653;47.052;15.410;2023-03-13T10:43:24;10.50;;;5.93;;
20988;SDS011;10653;47.052;15.410;2023-03-13T10:45:51;8.50;;;5.33;;
20988;SDS011;10653;47.052;15.410;2023-03-13T10:50:44;7.73;;;6.10;;
20988;SDS011;10653;47.052;15.410;2023-03-13T10:55:51;7.30;;;5.10;;
20988;SDS011;10653;47.052;15.410;2023-03-13T10:58:22;8.90;;;5.43;;
20988;SDS011;10653;47.052;15.410;2023-03-13T11:00:48;9.73;;;5.30;;
20988;SDS011;10653;47.052;15.410;2023-03-13T11:03:19;7.07;;;4.97;;
20988;SDS011;10653;47.052;15.410;2023-03-13T11:05:55;7.00;;;4.80;;
20988;SDS011;10653;47.052;15.410;2023-03-13T11:08:22;9.83;;;5.50;;
20988;SDS011;10653;47.052;15.410;2023-03-13T11:10:59;7.40;;;5.20;;
20988;SDS011;10653;47.052;15.410;2023-03-13T11:13:39;7.23;;;6.33;;
20988;SDS011;10653;47.052;15.410;2023-03-13T11:16:12;9.70;;;5.80;;
20988;SDS011;10653;47.052;15.410;2023-03-13T11:21:07;6.77;;;4.97;;
20988;SDS011;10653;47.052;15.410;2023-03-13T11:23:38;5.63;;;4.70;;
20988;SDS011;10653;47.052;15.410;2023-03-13T11:26:09;6.97;;;5.20;;
20988;SDS011;10653;47.052;15.410;2023-03-13T11:28:39;9.20;;;5.70;;
20988;SDS011;10653;47.052;15.410;2023-03-13T11:31:11;8.03;;;6.30;;
20988;SDS011;10653;47.052;15.410;2023-03-13T11:33:45;7.87;;;4.80;;
20988;SDS011;10653;47.052;15.410;2023-03-13T11:41:41;6.77;;;5.73;;
20988;SDS011;10653;47.052;15.410;2023-03-13T11:47:12;6.33;;;4.30;;
20988;SDS011;10653;47.052;15.410;2023-03-13T11:54:58;4.33;;;3.90;;
20988;SDS011;10653;47.052;15.410;2023-03-13T11:57:33;7.40;;;4.10;;
20988;SDS011;10653;47.052;15.410;2023-03-13T12:03:10;5.17;;;4.40;;
20988;SDS011;10653;47.052;15.410;2023-03-13T12:05:42;7.00;;;4.50;;
20988;SDS011;10653;47.052;15.410;2023-03-13T12:08:19;8.07;;;4.23;;
20988;SDS011;10653;47.052;15.410;2023-03-13T12:10:56;4.73;;;3.43;;
20988;SDS011;10653;47.052;15.410;2023-03-13T12:13:28;5.87;;;3.57;;
20988;SDS011;10653;47.052;15.410;2023-03-13T12:15:59;5.43;;;3.93;;
20988;SDS011;10653;47.052;15.410;2023-03-13T12:18:30;5.60;;;3.70;;
20988;SDS011;10653;47.052;15.410;2023-03-13T12:21:20;4.20;;;3.80;;
20988;SDS011;10653;47.052;15.410;2023-03-13T12:26:26;4.83;;;4.13;;
20988;SDS011;10653;47.052;15.410;2023-03-13T12:41:32;4.50;;;4.10;;
20988;SDS011;10653;47.052;15.410;2023-03-13T12:44:03;4.70;;;4.30;;
20988;SDS011;10653;47.052;15.410;2023-03-13T13:01:44;4.53;;;4.07;;
20988;SDS011;10653;47.052;15.410;2023-03-13T13:04:13;3.90;;;3.60;;
20988;SDS011;10653;47.052;15.410;2023-03-13T13:09:23;4.90;;;3.80;;
20988;SDS011;10653;47.052;15.410;2023-03-13T13:11:50;5.13;;;4.70;;
20988;SDS011;10653;47.052;15.410;2023-03-13T13:16:43;5.47;;;4.97;;
20988;SDS011;10653;47.052;15.410;2023-03-13T13:27:25;4.70;;;3.83;;
20988;SDS011;10653;47.052;15.410;2023-03-13T13:29:52;4.23;;;3.30;;
20988;SDS011;10653;47.052;15.410;2023-03-13T13:32:27;4.33;;;3.10;;
20988;SDS011;10653;47.052;15.410;2023-03-13T13:39:46;5.10;;;3.37;;
20988;SDS011;10653;47.052;15.410;2023-03-13T13:47:40;4.70;;;3.53;;
20988;SDS011;10653;47.052;15.410;2023-03-13T13:50:25;3.53;;;3.23;;
20988;SDS011;10653;47.052;15.410;2023-03-13T13:52:52;5.53;;;3.80;;
20988;SDS011;10653;47.052;15.410;2023-03-13T13:58:05;4.90;;;3.90;;
20988;SDS011;10653;47.052;15.410;2023-03-13T14:00:41;5.03;;;3.83;;
20988;SDS011;10653;47.052;15.410;2023-03-13T14:03:20;6.20;;;4.00;;
20988;SDS011;10653;47.052;15.410;2023-03-13T14:05:47;4.80;;;3.70;;
20988;SDS011;10653;47.052;15.410;2023-03-13T14:13:31;3.63;;;3.10;;
20988;SDS011;10653;47.052;15.410;2023-03-13T14:15:57;5.87;;;3.53;;
20988;SDS011;10653;47.052;15.410;2023-03-13T14:18:35;4.00;;;3.60;;
20988;SDS011;10653;47.052;15.410;2023-03-13T14:21:07;6.10;;;2.90;;
20988;SDS011;10653;47.052;15.410;2023-03-13T14:23:43;3.70;;;2.93;;
20988;SDS011;10653;47.052;15.410;2023-03-13T14:28:36;5.20;;;2.73;;
20988;SDS011;10653;47.052;15.410;2023-03-13T14:31:03;4.70;;;3.53;;
20988;SDS011;10653;47.052;15.410;2023-03-13T14:33:29;7.37;;;3.70;;
20988;SDS011;10653;47.052;15.410;2023-03-13T14:35:55;5.40;;;3.70;;
20988;SDS011;10653;47.052;15.410;2023-03-13T14:38:25;4.53;;;2.90;;
20988;SDS011;10653;47.052;15.410;2023-03-13T14:40:51;4.47;;;3.30;;
20988;SDS011;10653;47.052;15.410;2023-03-13T14:44:01;2.77;;;2.57;;
20988;SDS011;10653;47.052;15.410;2023-03-13T14:46:12;3.40;;;2.90;;
20988;SDS011;10653;47.052;15.410;2023-03-13T14:48:39;4.40;;;2.83;;
20988;SDS011;10653;47.052;15.410;2023-03-13T14:51:09;8.80;;;4.23;;
20988;SDS011;10653;47.052;15.410;2023-03-13T14:53:36;5.77;;;3.00;;
20988;SDS011;10653;47.052;15.410;2023-03-13T14:56:09;3.90;;;3.37;;
20988;SDS011;10653;47.052;15.410;2023-03-13T14:58:36;3.70;;;3.17;;
20988;SDS011;10653;47.052;15.410;2023-03-13T15:03:58;3.27;;;2.97;;
20988;SDS011;10653;47.052;15.410;2023-03-13T15:06:24;3.10;;;2.77;;
20988;SDS011;10653;47.052;15.410;2023-03-13T15:09:12;8.97;;;2.97;;
20988;SDS011;10653;47.052;15.410;2023-03-13T15:11:58;4.83;;;3.50;;
20988;SDS011;10653;47.052;15.410;2023-03-13T15:14:37;5.13;;;2.90;;
20988;SDS011;10653;47.052;15.410;2023-03-13T15:17:15;3.83;;;3.20;;
20988;SDS011;10653;47.052;15.410;2023-03-13T15:19:42;3.30;;;3.00;;
20988;SDS011;10653;47.052;15.410;2023-03-13T15:22:10;5.93;;;3.37;;
20988;SDS011;10653;47.052;15.410;2023-03-13T15:24:37;5.73;;;3.17;;
20988;SDS011;10653;47.052;15.410;2023-03-13T15:27:04;4.77;;;3.90;;
20988;SDS011;10653;47.052;15.410;2023-03-13T15:29:34;5.10;;;4.13;;
20988;SDS011;10653;47.052;15.410;2023-03-13T15:32:00;7.03;;;4.13;;
20988;SDS011;10653;47.052;15.410;2023-03-13T15:34:28;7.10;;;4.10;;
20988;SDS011;10653;47.052;15.410;2023-03-13T15:36:54;9.90;;;4.00;;
20988;SDS011;10653;47.052;15.410;2023-03-13T15:39:20;4.33;;;3.53;;
20988;SDS011;10653;47.052;15.410;2023-03-13T15:41:48;7.27;;;4.00;;
20988;SDS011;10653;47.052;15.410;2023-03-13T15:44:14;4.80;;;3.20;;
20988;SDS011;10653;47.052;15.410;2023-03-13T15:46:40;5.40;;;3.80;;
20988;SDS011;10653;47.052;15.410;2023-03-13T15:49:08;3.87;;;3.57;;
20988;SDS011;10653;47.052;15.410;2023-03-13T15:51:36;4.37;;;3.43;;
20988;SDS011;10653;47.052;15.410;2023-03-13T15:54:03;6.40;;;3.67;;
20988;SDS011;10653;47.052;15.410;2023-03-13T15:56:29;7.73;;;3.97;;
20988;SDS011;10653;47.052;15.410;2023-03-13T15:58:58;4.70;;;3.73;;
20988;SDS011;10653;47.052;15.410;2023-03-13T16:01:25;5.33;;;4.83;;
20988;SDS011;10653;47.052;15.410;2023-03-13T16:03:52;4.30;;;3.90;;
20988;SDS011;10653;47.052;15.410;2023-03-13T16:06:21;5.60;;;3.67;;
20988;SDS011;10653;47.052;15.410;2023-03-13T16:08:54;3.90;;;3.50;;
20988;SDS011;10653;47.052;15.410;2023-03-13T16:11:20;5.00;;;3.93;;
20988;SDS011;10653;47.052;15.410;2023-03-13T16:13:48;4.37;;;3.40;;
20988;SDS011;10653;47.052;15.410;2023-03-13T16:16:27;4.33;;;3.93;;